Time;durP1;ratioP1;P1;durP2;ratioP2;P2;SDS_P1;SDS_P2;PMS_P1;PMS_P2;Temp;Humidity;BMP_temperature;BMP_pressure;BME280_temperature;BME280_humidity;BME280_pressure;Samples;Min_cycle;Max_cycle;Signal;HPM_P1;HPM_P2
2022/04/21 00:00:46;;;;;;;23.10;15.60;;;6.50;99.90;;;;;;5092236;28;20204;-65
2022/04/21 00:03:14;;;;;;;22.87;15.73;;;6.50;99.90;;;;;;5091651;28;20228;-66
2022/04/21 00:05:41;;;;;;;21.43;15.27;;;6.50;99.90;;;;;;5092174;28;20206;-67
2022/04/21 00:08:08;;;;;;;20.67;15.27;;;6.50;99.90;;;;;;5092217;28;20294;-66
2022/04/21 00:10:35;;;;;;;23.53;16.23;;;6.50;99.90;;;;;;5092109;28;20223;-66
2022/04/21 00:13:02;;;;;;;24.23;16.60;;;6.40;99.90;;;;;;5092040;28;20196;-66
2022/04/21 00:15:29;;;;;;;23.63;16.03;;;6.40;99.90;;;;;;5091930;28;20277;-66
2022/04/21 00:17:57;;;;;;;22.30;15.03;;;6.40;99.90;;;;;;5091757;28;20200;-66
2022/04/21 00:20:25;;;;;;;21.37;14.73;;;6.40;99.90;;;;;;5091556;28;20208;-66
2022/04/21 00:25:37;;;;;;;23.33;15.03;;;6.50;99.90;;;;;;5091689;28;20758;-65
2022/04/21 00:28:06;;;;;;;22.40;15.50;;;6.50;99.90;;;;;;5091940;28;20214;-67
2022/04/21 00:30:32;;;;;;;23.60;16.13;;;6.50;99.90;;;;;;5091858;28;20200;-66
2022/04/21 00:32:59;;;;;;;21.10;15.20;;;6.50;99.90;;;;;;5091829;28;20206;-66
2022/04/21 00:35:27;;;;;;;22.63;15.77;;;6.50;99.90;;;;;;5091324;28;20222;-66
2022/04/21 00:37:55;;;;;;;19.40;14.13;;;6.50;99.90;;;;;;5093875;28;20200;-67
2022/04/21 00:40:26;;;;;;;21.00;14.57;;;6.50;99.90;;;;;;5095769;28;20200;-66
2022/04/21 00:42:53;;;;;;;18.80;13.17;;;6.50;99.90;;;;;;5095831;28;20609;-66
2022/04/21 00:45:20;;;;;;;20.50;15.23;;;6.50;99.90;;;;;;5095795;28;20203;-67
2022/04/21 00:47:48;;;;;;;19.67;14.80;;;6.50;99.90;;;;;;5095501;28;20229;-66
2022/04/21 00:50:17;;;;;;;20.50;14.63;;;6.50;99.90;;;;;;5095488;28;20204;-66
2022/04/21 00:52:46;;;;;;;21.13;15.10;;;6.50;99.90;;;;;;5095883;28;20204;-66
2022/04/21 00:55:14;;;;;;;22.80;14.50;;;6.50;99.90;;;;;;5095553;28;20204;-67
2022/04/21 00:57:42;;;;;;;19.93;14.83;;;6.50;99.90;;;;;;5095644;28;20211;-65
2022/04/21 01:00:11;;;;;;;20.43;14.77;;;6.40;99.90;;;;;;5095502;28;20547;-66
2022/04/21 01:02:53;;;;;;;21.37;14.47;;;6.40;99.90;;;;;;5095392;28;20224;-65
2022/04/21 01:05:33;;;;;;;22.33;15.93;;;6.40;99.90;;;;;;5095622;28;20192;-66
2022/04/21 01:08:03;;;;;;;20.03;15.00;;;6.50;99.90;;;;;;5095538;28;20192;-65
2022/04/21 01:10:31;;;;;;;19.47;14.73;;;6.50;99.90;;;;;;5095301;28;20192;-66
2022/04/21 01:12:59;;;;;;;23.50;15.77;;;6.50;99.90;;;;;;5095332;28;20218;-66
2022/04/21 01:15:27;;;;;;;20.30;15.07;;;6.50;99.90;;;;;;5095707;28;20211;-66
2022/04/21 01:17:54;;;;;;;24.30;16.47;;;6.50;99.90;;;;;;5095214;28;20208;-66
2022/04/21 01:20:23;;;;;;;20.63;14.73;;;6.50;99.90;;;;;;5094834;28;20204;-66
2022/04/21 01:22:50;;;;;;;22.47;15.77;;;6.40;99.90;;;;;;5094955;28;20686;-66
2022/04/21 01:25:17;;;;;;;23.17;16.17;;;6.50;99.90;;;;;;5094619;28;20200;-65
2022/04/21 01:27:46;;;;;;;22.17;15.50;;;6.40;99.90;;;;;;5095065;28;20558;-66
2022/04/21 01:30:13;;;;;;;26.53;17.27;;;6.40;99.90;;;;;;5094847;28;20562;-66
2022/04/21 01:32:42;;;;;;;24.80;16.00;;;6.40;99.90;;;;;;5094896;28;20669;-67
2022/04/21 01:35:10;;;;;;;23.03;16.10;;;6.40;99.90;;;;;;5094688;28;20204;-67
2022/04/21 01:43:09;;;;;;;25.17;17.80;;;6.50;99.90;;;;;;5094340;28;20212;-68
2022/04/21 01:45:36;;;;;;;26.17;17.33;;;6.50;99.90;;;;;;5094798;28;20200;-65
2022/04/21 01:48:03;;;;;;;23.93;16.90;;;6.40;99.90;;;;;;5093669;28;20246;-66
2022/04/21 01:50:30;;;;;;;24.17;16.97;;;6.40;99.90;;;;;;5093783;28;20619;-70
2022/04/21 01:52:59;;;;;;;26.73;17.93;;;6.40;99.90;;;;;;5094759;28;20241;-67
2022/04/21 01:55:26;;;;;;;21.47;15.47;;;6.40;99.90;;;;;;5094398;28;20223;-67
2022/04/21 01:57:53;;;;;;;24.53;16.40;;;6.40;99.90;;;;;;5094571;28;20200;-67
2022/04/21 02:00:21;;;;;;;25.13;17.10;;;6.40;99.90;;;;;;5094060;28;20204;-66
2022/04/21 02:02:47;;;;;;;22.17;15.43;;;6.40;99.90;;;;;;5093968;28;20226;-67
2022/04/21 02:05:14;;;;;;;24.47;16.73;;;6.40;99.90;;;;;;5094191;28;20208;-66
2022/04/21 02:07:43;;;;;;;26.90;17.07;;;6.40;99.90;;;;;;5094316;28;20210;-66
2022/04/21 02:10:12;;;;;;;24.40;16.90;;;6.40;99.90;;;;;;5094256;28;20700;-66
2022/04/21 02:12:39;;;;;;;22.03;16.33;;;6.40;99.90;;;;;;5093872;28;20200;-66
2022/04/21 02:15:06;;;;;;;23.67;16.30;;;6.50;99.90;;;;;;5093682;28;20200;-66
2022/04/21 02:17:33;;;;;;;24.50;16.60;;;6.40;99.90;;;;;;5094068;28;20204;-67
2022/04/21 02:20:00;;;;;;;23.60;16.27;;;6.40;99.90;;;;;;5093927;28;20568;-67
2022/04/21 02:22:27;;;;;;;20.77;15.80;;;6.40;99.90;;;;;;5093523;28;20224;-66
2022/04/21 02:24:54;;;;;;;23.07;16.70;;;6.40;99.90;;;;;;5093852;28;20554;-66
2022/04/21 02:27:22;;;;;;;22.67;15.67;;;6.40;99.90;;;;;;5093663;28;20238;-65
2022/04/21 02:29:49;;;;;;;22.63;15.90;;;6.30;99.90;;;;;;5093452;28;20204;-66
2022/04/21 02:32:16;;;;;;;22.67;16.27;;;6.30;99.90;;;;;;5093984;28;20302;-66
2022/04/21 02:34:43;;;;;;;21.37;15.80;;;6.30;99.90;;;;;;5093830;28;20208;-67
2022/04/21 02:37:10;;;;;;;23.13;16.67;;;6.40;99.90;;;;;;5093265;28;20239;-66
2022/04/21 02:39:37;;;;;;;23.23;16.63;;;6.40;99.90;;;;;;5093688;28;20208;-66
2022/04/21 02:42:04;;;;;;;20.53;15.33;;;6.40;99.90;;;;;;5093093;28;20211;-66
2022/04/21 02:44:33;;;;;;;22.43;16.47;;;6.40;99.90;;;;;;5093458;28;20215;-67
2022/04/21 02:47:00;;;;;;;23.80;17.67;;;6.40;99.90;;;;;;5092925;28;20204;-66
2022/04/21 02:49:28;;;;;;;25.07;17.63;;;6.40;99.90;;;;;;5093810;28;20542;-65
2022/04/21 02:51:55;;;;;;;25.10;17.63;;;6.40;99.90;;;;;;5093362;28;20212;-66
2022/04/21 02:57:21;;;;;;;26.27;18.30;;;6.40;99.90;;;;;;5093038;28;20302;-66
2022/04/21 02:59:50;;;;;;;24.77;17.20;;;6.40;99.90;;;;;;5092836;28;20188;-66
2022/04/21 03:02:18;;;;;;;25.67;17.33;;;6.40;99.90;;;;;;5093230;28;20223;-67
2022/04/21 03:04:45;;;;;;;26.23;17.70;;;6.40;99.90;;;;;;5093236;28;20203;-67
2022/04/21 03:07:13;;;;;;;23.30;16.77;;;6.40;99.90;;;;;;5093245;28;20310;-66
2022/04/21 03:09:39;;;;;;;25.67;17.30;;;6.40;99.90;;;;;;5092813;28;20204;-66
2022/04/21 03:12:08;;;;;;;25.97;17.73;;;6.40;99.90;;;;;;5092652;28;20208;-67
2022/04/21 03:14:36;;;;;;;24.43;17.13;;;6.40;99.90;;;;;;5092880;28;20239;-66
2022/04/21 03:17:05;;;;;;;23.03;16.47;;;6.40;99.90;;;;;;5092864;28;20257;-66
2022/04/21 03:19:31;;;;;;;22.43;15.97;;;6.40;99.90;;;;;;5092626;28;20208;-67
2022/04/21 03:24:43;;;;;;;23.00;16.23;;;6.40;99.90;;;;;;5092545;28;20187;-66
2022/04/21 03:27:10;;;;;;;23.53;16.73;;;6.50;99.90;;;;;;5092734;28;20597;-66
2022/04/21 03:29:38;;;;;;;21.03;15.10;;;6.40;99.90;;;;;;5092583;28;20212;-67
2022/04/21 03:32:09;;;;;;;22.37;16.73;;;6.50;99.90;;;;;;5092620;28;20214;-66
2022/04/21 03:34:37;;;;;;;23.10;15.17;;;6.50;99.90;;;;;;5092382;28;20199;-67
2022/04/21 03:37:04;;;;;;;25.83;15.50;;;6.50;99.90;;;;;;5092309;28;20203;-66
2022/04/21 03:39:30;;;;;;;19.37;14.83;;;6.50;99.90;;;;;;5092672;28;20200;-68
2022/04/21 03:41:57;;;;;;;23.47;16.03;;;6.50;99.90;;;;;;5092332;28;20200;-65
2022/04/21 03:44:24;;;;;;;20.57;15.60;;;6.50;99.90;;;;;;5092425;28;20224;-67
2022/04/21 03:46:51;;;;;;;25.17;17.20;;;6.40;99.90;;;;;;5092285;28;20226;-67
2022/04/21 03:49:20;;;;;;;24.07;17.17;;;6.50;99.90;;;;;;5092513;28;20204;-66
2022/04/21 03:51:48;;;;;;;24.87;17.47;;;6.50;99.90;;;;;;5090913;28;20200;-67
2022/04/21 03:54:15;;;;;;;23.53;16.47;;;6.50;99.90;;;;;;5092511;28;20196;-68
2022/04/21 03:56:42;;;;;;;22.67;15.83;;;6.50;99.90;;;;;;5092192;28;20228;-66
2022/04/21 03:59:08;;;;;;;23.77;16.87;;;6.50;99.90;;;;;;5092125;28;20207;-66
2022/04/21 04:01:35;;;;;;;25.87;17.80;;;6.50;99.90;;;;;;5092258;28;20200;-66
2022/04/21 04:04:02;;;;;;;21.83;15.73;;;6.60;99.90;;;;;;5091997;28;20231;-67
2022/04/21 04:12:00;;;;;;;25.57;17.50;;;6.70;99.90;;;;;;5090987;28;20187;-67
2022/04/21 04:14:28;;;;;;;25.60;17.77;;;6.70;99.90;;;;;;5092256;28;20415;-66
2022/04/21 04:16:55;;;;;;;28.13;19.10;;;6.70;99.90;;;;;;5092141;28;20731;-66
2022/04/21 04:19:22;;;;;;;24.43;17.10;;;6.70;99.90;;;;;;5091713;28;20203;-68
2022/04/21 04:21:51;;;;;;;26.43;17.83;;;6.70;99.90;;;;;;5091840;28;20231;-68
2022/04/21 04:24:18;;;;;;;28.53;19.63;;;6.70;99.90;;;;;;5092043;28;20228;-66
2022/04/21 04:26:45;;;;;;;38.77;23.60;;;6.70;99.90;;;;;;5091798;28;20668;-66
2022/04/21 04:29:12;;;;;;;44.90;27.23;;;6.70;99.90;;;;;;5092255;28;20212;-66
2022/04/21 04:31:40;;;;;;;43.17;25.43;;;6.70;99.90;;;;;;5091721;28;20303;-67
2022/04/21 04:34:08;;;;;;;36.23;22.97;;;6.70;99.90;;;;;;5091863;28;20200;-65
2022/04/21 04:36:35;;;;;;;31.77;21.97;;;6.70;99.90;;;;;;5091846;28;20244;-69
2022/04/21 04:39:03;;;;;;;32.83;22.03;;;6.70;99.90;;;;;;5091739;28;20212;-66
2022/04/21 04:44:14;;;;;;;31.93;20.90;;;6.70;99.90;;;;;;5091894;28;20738;-69
2022/04/21 04:46:40;;;;;;;29.73;19.93;;;6.70;99.90;;;;;;5091703;28;20588;-66
2022/04/21 04:49:08;;;;;;;28.93;19.93;;;6.60;99.90;;;;;;5091322;28;20242;-66
2022/04/21 04:51:37;;;;;;;28.40;19.50;;;6.60;99.90;;;;;;5091591;28;20226;-66
2022/04/21 04:54:06;;;;;;;31.10;20.43;;;6.50;99.90;;;;;;5091507;28;20200;-66
2022/04/21 04:56:33;;;;;;;31.20;19.23;;;6.50;99.90;;;;;;5091576;28;20208;-67
2022/04/21 04:59:00;;;;;;;30.20;19.80;;;6.50;99.90;;;;;;5091669;28;20654;-67
2022/04/21 05:01:31;;;;;;;29.57;19.73;;;6.40;99.90;;;;;;5091142;28;20266;-66
2022/04/21 05:04:02;;;;;;;30.33;20.17;;;6.30;99.90;;;;;;5091341;28;20216;-66
2022/04/21 05:06:29;;;;;;;31.87;20.03;;;6.30;99.90;;;;;;5091292;28;20200;-66
2022/04/21 05:08:57;;;;;;;27.87;19.20;;;6.30;99.90;;;;;;5091714;28;20250;-66
2022/04/21 05:11:26;;;;;;;27.53;18.97;;;6.20;99.90;;;;;;5091496;28;20204;-66
2022/04/21 05:13:54;;;;;;;29.63;19.77;;;6.20;99.90;;;;;;5091408;28;20452;-66
2022/04/21 05:16:21;;;;;;;32.10;19.67;;;6.20;99.90;;;;;;5091581;28;20246;-66
2022/04/21 05:18:49;;;;;;;31.43;19.10;;;6.20;99.90;;;;;;5091222;28;20204;-66
2022/04/21 05:21:16;;;;;;;27.93;19.43;;;6.30;99.90;;;;;;5091243;28;20641;-66
2022/04/21 05:23:46;;;;;;;29.10;18.40;;;6.30;99.90;;;;;;5092491;28;20228;-66
2022/04/21 05:26:13;;;;;;;28.90;18.97;;;6.30;99.90;;;;;;5094543;28;20203;-66
2022/04/21 05:28:42;;;;;;;28.20;18.63;;;6.30;99.90;;;;;;5094974;28;20659;-66
2022/04/21 05:31:08;;;;;;;30.50;19.00;;;6.30;99.90;;;;;;5094946;28;20615;-66
2022/04/21 05:33:37;;;;;;;29.13;19.77;;;6.30;99.90;;;;;;5094836;28;20195;-68
2022/04/21 05:36:06;;;;;;;30.33;18.80;;;6.20;99.90;;;;;;5094837;28;20654;-67
2022/04/21 05:38:33;;;;;;;27.47;18.83;;;6.30;99.90;;;;;;5094292;28;20206;-67
2022/04/21 05:41:00;;;;;;;27.07;18.13;;;6.30;99.90;;;;;;5095159;28;20200;-65
2022/04/21 05:43:31;;;;;;;23.67;17.13;;;6.20;99.90;;;;;;5094666;28;20224;-67
2022/04/21 05:46:00;;;;;;;27.47;17.80;;;6.20;99.90;;;;;;5094662;28;20615;-67
2022/04/21 05:48:27;;;;;;;27.33;18.43;;;6.30;99.90;;;;;;5094170;28;20605;-66
2022/04/21 05:50:54;;;;;;;26.97;17.50;;;6.30;99.90;;;;;;5094556;28;20204;-66
2022/04/21 05:53:23;;;;;;;29.03;18.33;;;6.30;99.90;;;;;;5094244;28;20204;-67
2022/04/21 05:55:51;;;;;;;30.07;18.10;;;6.30;99.90;;;;;;5094551;28;20204;-66
2022/04/21 05:58:18;;;;;;;28.50;17.47;;;6.30;99.90;;;;;;5094479;28;20215;-66
2022/04/21 06:00:45;;;;;;;28.53;18.93;;;6.30;99.90;;;;;;5094239;28;20200;-67
2022/04/21 06:03:13;;;;;;;27.40;17.77;;;6.30;99.90;;;;;;5093953;28;20216;-66
2022/04/21 06:05:40;;;;;;;30.30;19.63;;;6.30;99.90;;;;;;5093842;28;20207;-67
2022/04/21 06:08:07;;;;;;;29.13;18.77;;;6.30;99.90;;;;;;5094264;28;20200;-66
2022/04/21 06:10:34;;;;;;;31.67;19.53;;;6.30;99.90;;;;;;5093921;28;20265;-67
2022/04/21 06:13:02;;;;;;;28.87;19.13;;;6.30;99.90;;;;;;5094293;28;20627;-68
2022/04/21 06:15:31;;;;;;;30.10;18.97;;;6.20;99.90;;;;;;5093699;28;20298;-67
2022/04/21 06:17:58;;;;;;;30.77;18.57;;;6.20;99.90;;;;;;5094036;28;20574;-66
2022/04/21 06:20:27;;;;;;;30.77;18.87;;;6.20;99.90;;;;;;5093839;28;20233;-66
2022/04/21 06:22:54;;;;;;;31.20;19.77;;;6.10;99.90;;;;;;5093761;28;20208;-67
2022/04/21 06:25:21;;;;;;;30.10;19.17;;;6.10;99.90;;;;;;5093733;28;20223;-66
2022/04/21 06:27:48;;;;;;;33.70;20.07;;;6.10;99.90;;;;;;5093839;28;20273;-66
2022/04/21 06:30:15;;;;;;;33.80;20.57;;;6.20;99.90;;;;;;5093891;28;20666;-66
2022/04/21 06:32:43;;;;;;;32.57;20.27;;;6.20;99.90;;;;;;5093252;28;20204;-66
2022/04/21 06:35:10;;;;;;;29.27;18.90;;;6.30;99.90;;;;;;5092860;28;20693;-67
2022/04/21 06:37:39;;;;;;;30.40;18.43;;;6.40;99.90;;;;;;5093494;28;20568;-67
2022/04/21 06:40:07;;;;;;;30.37;18.73;;;6.40;99.90;;;;;;5093582;28;20294;-67
2022/04/21 06:42:35;;;;;;;30.43;18.53;;;6.50;99.90;;;;;;5093608;28;20211;-67
2022/04/21 06:48:04;;;;;;;28.20;18.07;;;6.50;99.90;;;;;;5093207;28;20243;-69
2022/04/21 06:50:33;;;;;;;26.67;17.80;;;6.60;99.90;;;;;;5093085;28;20192;-67
2022/04/21 06:53:01;;;;;;;27.93;18.13;;;6.60;99.90;;;;;;5093276;28;20612;-69
2022/04/21 06:55:28;;;;;;;28.80;18.47;;;6.70;99.90;;;;;;5092699;28;20211;-67
2022/04/21 06:57:55;;;;;;;27.10;18.23;;;6.70;99.90;;;;;;5093166;28;20684;-67
2022/04/21 07:00:26;;;;;;;24.50;17.47;;;6.70;99.90;;;;;;5092612;28;20204;-67
2022/04/21 07:02:54;;;;;;;28.27;18.40;;;6.80;99.90;;;;;;5093031;28;20238;-67
2022/04/21 07:05:22;;;;;;;26.13;17.57;;;6.70;99.90;;;;;;5092855;28;20232;-67
2022/04/21 07:07:49;;;;;;;29.27;18.67;;;6.80;99.90;;;;;;5093000;28;20561;-67
2022/04/21 07:10:18;;;;;;;29.70;19.10;;;6.80;99.90;;;;;;5092767;28;20208;-68
2022/04/21 07:12:46;;;;;;;28.53;18.87;;;6.80;99.90;;;;;;5092864;28;20207;-66
2022/04/21 07:15:13;;;;;;;28.97;18.83;;;6.80;99.90;;;;;;5092252;28;20196;-67
2022/04/21 07:17:40;;;;;;;30.60;19.20;;;6.90;99.90;;;;;;5092360;28;20220;-67
2022/04/21 07:20:11;;;;;;;29.00;17.67;;;6.90;99.90;;;;;;5092751;28;20204;-67
2022/04/21 07:22:38;;;;;;;31.50;19.07;;;7.00;99.90;;;;;;5092670;28;20204;-69
2022/04/21 07:25:07;;;;;;;29.73;18.80;;;7.00;99.90;;;;;;5092630;28;20216;-68
2022/04/21 07:27:37;;;;;;;30.40;17.70;;;7.10;99.90;;;;;;5092884;28;20303;-67
2022/04/21 07:30:04;;;;;;;29.17;18.17;;;7.20;99.90;;;;;;5092368;28;20203;-68
2022/04/21 07:32:31;;;;;;;32.13;18.73;;;7.30;99.90;;;;;;5092213;28;20208;-66
2022/04/21 07:34:58;;;;;;;32.20;18.53;;;7.40;99.90;;;;;;5092583;28;20196;-65
2022/04/21 07:37:24;;;;;;;31.13;18.60;;;7.40;99.90;;;;;;5092146;28;20203;-67
2022/04/21 07:39:51;;;;;;;32.10;18.53;;;7.50;99.90;;;;;;5092427;28;20203;-67
2022/04/21 07:42:18;;;;;;;29.90;18.70;;;7.50;99.90;;;;;;5092365;28;20199;-67
2022/04/21 07:44:46;;;;;;;32.63;19.47;;;7.60;99.90;;;;;;5092071;28;20773;-66
2022/04/21 07:47:13;;;;;;;36.50;20.03;;;7.60;99.90;;;;;;5091906;28;20207;-67
2022/04/21 07:49:46;;;;;;;34.10;19.77;;;7.60;99.90;;;;;;5092118;28;20194;-67
2022/04/21 07:55:07;;;;;;;28.67;17.83;;;7.60;99.90;;;;;;5091886;28;20179;-67
2022/04/21 07:57:34;;;;;;;29.70;18.43;;;7.60;99.90;;;;;;5092144;28;20284;-66
2022/04/21 08:00:03;;;;;;;34.47;19.97;;;7.70;99.90;;;;;;5091901;28;20199;-66
2022/04/21 08:02:30;;;;;;;32.90;21.03;;;7.70;99.90;;;;;;5091774;28;20218;-66
2022/04/21 08:04:57;;;;;;;33.73;20.43;;;7.70;99.90;;;;;;5091693;28;20223;-67
2022/04/21 08:07:24;;;;;;;34.83;19.93;;;7.70;99.90;;;;;;5091782;28;20684;-68
2022/04/21 08:09:50;;;;;;;34.27;19.27;;;7.80;99.90;;;;;;5091978;28;20293;-67
2022/04/21 08:12:17;;;;;;;36.80;21.80;;;7.80;99.90;;;;;;5091628;28;20207;-67
2022/04/21 08:14:44;;;;;;;36.93;20.63;;;7.70;99.90;;;;;;5091593;28;20294;-70
2022/04/21 08:17:12;;;;;;;36.07;21.90;;;7.60;99.90;;;;;;5091436;28;20208;-67
2022/04/21 08:19:39;;;;;;;32.20;19.20;;;7.50;99.90;;;;;;5091872;28;20226;-67
2022/04/21 08:22:06;;;;;;;33.10;19.97;;;7.50;99.90;;;;;;5091808;28;20607;-66
2022/04/21 08:32:46;;;;;;;33.07;20.07;;;7.60;99.90;;;;;;5070046;28;20204;-67
2022/04/21 08:35:14;;;;;;;37.73;22.27;;;7.50;99.90;;;;;;5091779;28;20673;-67
2022/04/21 08:37:41;;;;;;;32.33;20.40;;;7.50;99.90;;;;;;5091863;28;20208;-67
2022/04/21 08:40:10;;;;;;;29.83;19.37;;;7.40;99.90;;;;;;5091687;28;20637;-68
2022/04/21 08:42:43;;;;;;;30.40;19.77;;;7.40;99.90;;;;;;5091750;28;20614;-66
2022/04/21 08:45:12;;;;;;;34.00;19.87;;;7.30;99.90;;;;;;5091359;28;20218;-67
2022/04/21 08:47:42;;;;;;;34.23;21.30;;;7.40;99.90;;;;;;5091187;28;20251;-67
2022/04/21 08:50:12;;;;;;;36.73;23.03;;;7.30;99.90;;;;;;5091580;28;20235;-69
2022/04/21 08:52:40;;;;;;;38.97;22.60;;;7.30;99.90;;;;;;5091920;28;20192;-66
2022/04/21 08:55:08;;;;;;;37.17;22.57;;;7.30;99.90;;;;;;5091289;28;20208;-67
2022/04/21 08:57:35;;;;;;;38.33;23.37;;;7.20;99.90;;;;;;5091486;28;20215;-68
2022/04/21 09:00:04;;;;;;;39.13;23.43;;;7.20;99.90;;;;;;5095368;28;20620;-68
2022/04/21 09:02:35;;;;;;;35.50;22.33;;;7.20;99.90;;;;;;5095507;28;20208;-68
2022/04/21 09:05:03;;;;;;;37.83;22.80;;;7.10;99.90;;;;;;5095268;28;20228;-67
2022/04/21 09:07:32;;;;;;;41.63;24.57;;;7.10;99.90;;;;;;5095385;28;20203;-67
2022/04/21 09:10:08;;;;;;;38.70;24.00;;;7.10;99.90;;;;;;5095233;28;20590;-67
2022/04/21 09:12:35;;;;;;;40.07;24.40;;;7.10;99.90;;;;;;5095470;28;20266;-68
2022/04/21 09:15:10;;;;;;;37.57;23.17;;;7.10;99.90;;;;;;5094909;28;20291;-67
2022/04/21 09:17:42;;;;;;;40.93;23.80;;;7.20;99.90;;;;;;5094974;28;20200;-67
2022/04/21 09:20:09;;;;;;;35.33;22.57;;;7.20;99.90;;;;;;5095107;28;20207;-70
2022/04/21 09:22:41;;;;;;;37.13;22.40;;;7.20;99.90;;;;;;5095167;28;20713;-67
2022/04/21 09:25:09;;;;;;;36.17;21.83;;;7.20;99.90;;;;;;5094942;28;20208;-67
2022/04/21 09:27:41;;;;;;;32.03;19.73;;;7.30;99.90;;;;;;5094743;28;20208;-67
2022/04/21 09:30:12;;;;;;;33.80;21.23;;;7.40;99.90;;;;;;5094909;28;20561;-67
2022/04/21 09:32:40;;;;;;;32.00;20.57;;;7.60;99.90;;;;;;5095004;28;20558;-67
2022/04/21 09:35:09;;;;;;;30.53;20.23;;;7.70;99.90;;;;;;5094509;28;20204;-67
2022/04/21 09:37:49;;;;;;;29.83;19.20;;;7.80;99.90;;;;;;5094901;28;20693;-68
2022/04/21 09:40:20;;;;;;;29.37;19.37;;;7.80;99.90;;;;;;5094355;28;20192;-68
2022/04/21 09:42:58;;;;;;;31.03;19.60;;;7.90;99.90;;;;;;5094407;28;20192;-67
2022/04/21 09:48:20;;;;;;;28.87;18.10;;;7.90;99.90;;;;;;5094251;28;20243;-66
2022/04/21 09:50:52;;;;;;;28.13;18.20;;;7.90;99.90;;;;;;5094235;28;20203;-66
2022/04/21 09:53:23;;;;;;;30.63;19.30;;;7.90;99.90;;;;;;5094713;28;20555;-66
2022/04/21 09:55:50;;;;;;;29.37;18.93;;;7.90;99.90;;;;;;5094128;28;20184;-66
2022/04/21 09:58:18;;;;;;;30.63;19.77;;;7.70;99.90;;;;;;5094117;28;20204;-66
2022/04/21 10:00:45;;;;;;;33.27;19.80;;;7.60;99.90;;;;;;5094352;28;20559;-67
2022/04/21 10:03:13;;;;;;;34.57;20.03;;;7.70;99.90;;;;;;5094349;28;20212;-66
2022/04/21 10:05:41;;;;;;;32.33;19.00;;;7.80;99.90;;;;;;5094403;28;20231;-66
2022/04/21 10:08:09;;;;;;;39.43;23.03;;;7.90;99.90;;;;;;5094221;28;20663;-67
2022/04/21 10:10:39;;;;;;;34.50;20.93;;;8.00;99.90;;;;;;5092879;28;20228;-66
2022/04/21 10:13:07;;;;;;;35.00;19.77;;;8.10;99.90;;;;;;5093646;28;20204;-67
2022/04/21 10:15:35;;;;;;;33.53;19.50;;;8.10;99.90;;;;;;5094054;28;20588;-67
2022/04/21 10:18:02;;;;;;;38.33;21.23;;;8.10;99.90;;;;;;5093719;28;20200;-67
2022/04/21 10:20:31;;;;;;;37.87;20.03;;;8.10;99.90;;;;;;5093815;28;20717;-66
2022/04/21 10:22:59;;;;;;;35.77;20.50;;;8.10;99.90;;;;;;5093932;28;20203;-66
2022/04/21 10:25:35;;;;;;;33.33;19.33;;;8.20;99.90;;;;;;5093856;28;20220;-66
2022/04/21 10:28:37;;;;;;;30.60;18.43;;;8.20;99.90;;;;;;5093461;28;20196;-66
2022/04/21 10:31:27;;;;;;;27.30;16.47;;;8.30;99.90;;;;;;5093322;28;20188;-67
2022/04/21 10:33:55;;;;;;;28.17;16.40;;;8.30;99.90;;;;;;5093304;28;20253;-67
2022/04/21 10:36:36;;;;;;;24.50;15.60;;;8.20;99.90;;;;;;5093681;28;20204;-66
2022/04/21 10:39:30;;;;;;;22.90;14.60;;;8.10;99.90;;;;;;5093585;28;20592;-68
2022/04/21 10:42:14;;;;;;;22.43;14.93;;;8.10;99.90;;;;;;5093016;28;20184;-66
2022/04/21 10:44:47;;;;;;;23.60;14.83;;;8.20;99.90;;;;;;5093419;28;20588;-66
2022/04/21 10:47:35;;;;;;;23.47;15.13;;;8.20;99.90;;;;;;5093455;28;20537;-66
2022/04/21 10:50:16;;;;;;;22.87;15.17;;;8.10;99.90;;;;;;5092979;28;20204;-67
2022/04/21 10:58:51;;;;;;;24.53;15.57;;;8.20;99.90;;;;;;5093153;28;20205;-68
2022/04/21 11:01:28;;;;;;;24.20;15.10;;;8.30;99.90;;;;;;5093018;28;20657;-66
2022/04/21 11:04:12;;;;;;;26.20;16.93;;;8.30;99.90;;;;;;5093019;28;20672;-65
2022/04/21 11:06:41;;;;;;;23.73;15.20;;;8.20;99.90;;;;;;5093171;28;20549;-67
2022/04/21 11:09:08;;;;;;;24.53;15.60;;;8.20;99.90;;;;;;5093111;28;20212;-66
2022/04/21 11:11:45;;;;;;;25.37;15.63;;;8.20;99.90;;;;;;5093157;28;20208;-67
2022/04/21 11:14:12;;;;;;;18.17;13.43;;;8.20;99.90;;;;;;5093105;28;20697;-66
2022/04/21 11:16:49;;;;;;;21.50;14.43;;;8.30;99.90;;;;;;5092597;28;20206;-67
2022/04/21 11:19:40;;;;;;;18.50;12.67;;;8.30;99.90;;;;;;5092639;28;20218;-69
2022/04/21 11:22:08;;;;;;;16.93;13.20;;;8.20;99.90;;;;;;5092546;28;20311;-68
2022/04/21 11:25:06;;;;;;;17.67;13.03;;;8.00;99.90;;;;;;5092534;28;20654;-65
2022/04/21 11:27:37;;;;;;;20.07;14.07;;;7.90;99.90;;;;;;5092837;28;20210;-66
2022/04/21 11:30:06;;;;;;;18.47;14.53;;;7.80;99.90;;;;;;5092446;28;20188;-66
2022/04/21 11:32:34;;;;;;;20.67;14.80;;;7.80;99.90;;;;;;5092743;28;20223;-66
2022/04/21 11:35:04;;;;;;;21.53;14.43;;;7.90;99.90;;;;;;5092454;28;20207;-66
2022/04/21 11:37:53;;;;;;;20.97;14.60;;;7.80;99.90;;;;;;5092654;28;20223;-67
2022/04/21 11:40:26;;;;;;;19.73;14.60;;;7.70;99.90;;;;;;5092674;28;20639;-66
2022/04/21 11:42:54;;;;;;;21.27;14.70;;;7.60;99.90;;;;;;5092310;28;20676;-66
2022/04/21 11:45:23;;;;;;;22.97;15.83;;;7.60;99.90;;;;;;5092418;28;20638;-66
2022/04/21 11:47:52;;;;;;;23.90;14.97;;;7.70;99.90;;;;;;5092025;28;20581;-67
2022/04/21 11:50:23;;;;;;;19.83;14.03;;;7.80;99.90;;;;;;5092096;28;20243;-66
2022/04/21 11:52:53;;;;;;;20.43;14.27;;;7.80;99.90;;;;;;5092040;28;20198;-68
2022/04/21 11:55:21;;;;;;;21.23;14.23;;;7.90;99.90;;;;;;5092244;28;20191;-67
2022/04/21 11:57:49;;;;;;;19.17;14.07;;;7.90;99.90;;;;;;5092147;28;20200;-67
2022/04/21 12:00:17;;;;;;;20.57;13.90;;;7.90;99.90;;;;;;5092297;28;20204;-66
2022/04/21 12:08:14;;;;;;;20.27;14.00;;;7.90;99.90;;;;;;5091988;28;20598;-66
2022/04/21 12:10:42;;;;;;;18.53;13.93;;;7.90;99.90;;;;;;5092301;28;20200;-68
2022/04/21 12:13:09;;;;;;;18.83;13.37;;;7.90;99.90;;;;;;5092182;28;20208;-68
2022/04/21 12:15:39;;;;;;;20.03;14.40;;;7.90;99.90;;;;;;5091991;28;20245;-66
2022/04/21 12:18:06;;;;;;;18.00;13.23;;;7.90;99.90;;;;;;5091732;28;20223;-65
2022/04/21 12:20:34;;;;;;;15.63;11.90;;;7.80;99.90;;;;;;5091804;28;20300;-65
2022/04/21 12:23:01;;;;;;;20.57;14.00;;;7.70;99.90;;;;;;5091960;28;20222;-66
2022/04/21 12:25:32;;;;;;;16.43;12.03;;;7.60;99.90;;;;;;5091994;28;20319;-66
2022/04/21 12:28:03;;;;;;;14.90;10.23;;;7.70;99.90;;;;;;5091980;28;20214;-66
2022/04/21 12:30:30;;;;;;;14.63;10.20;;;7.80;99.90;;;;;;5091438;28;20215;-66
2022/04/21 12:32:58;;;;;;;13.87;10.07;;;7.80;99.90;;;;;;5092093;28;20207;-66
2022/04/21 12:35:45;;;;;;;13.47;10.30;;;7.90;99.90;;;;;;5095883;28;20208;-66
2022/04/21 12:41:00;;;;;;;12.77;9.20;;;8.00;99.90;;;;;;5095753;28;20191;-65
2022/04/21 12:43:28;;;;;;;12.60;8.70;;;8.10;99.90;;;;;;5095749;28;20204;-68
2022/04/21 12:45:55;;;;;;;9.63;7.80;;;8.00;99.90;;;;;;5095450;28;20227;-65
2022/04/21 12:48:23;;;;;;;10.30;7.63;;;8.00;99.90;;;;;;5095462;28;20235;-67
2022/04/21 12:50:52;;;;;;;10.13;6.97;;;8.00;99.90;;;;;;5095532;28;20204;-67
2022/04/21 12:53:26;;;;;;;9.57;6.97;;;8.00;99.90;;;;;;5095682;28;20548;-68
2022/04/21 12:55:53;;;;;;;8.93;6.87;;;8.00;99.90;;;;;;5095573;28;20720;-66
2022/04/21 12:58:30;;;;;;;10.03;6.50;;;8.10;99.90;;;;;;5095354;28;20212;-67
2022/04/21 13:00:58;;;;;;;8.87;6.60;;;8.10;99.90;;;;;;5095615;28;20196;-68
2022/04/21 13:03:25;;;;;;;8.27;6.33;;;8.20;99.90;;;;;;5095103;28;20203;-66
2022/04/21 13:05:55;;;;;;;9.60;5.93;;;8.20;99.90;;;;;;5095087;28;20216;-66
2022/04/21 13:08:24;;;;;;;7.20;5.90;;;8.20;99.90;;;;;;5095499;28;20215;-66
2022/04/21 13:10:52;;;;;;;10.20;5.80;;;8.30;99.90;;;;;;5095407;28;20571;-67
2022/04/21 13:13:19;;;;;;;7.63;5.73;;;8.20;99.90;;;;;;5095261;28;20563;-66
2022/04/21 13:15:47;;;;;;;8.27;6.33;;;8.20;99.90;;;;;;5095470;28;20672;-68
2022/04/21 13:18:14;;;;;;;8.67;6.30;;;8.20;99.90;;;;;;5095278;28;20215;-66
2022/04/21 13:23:27;;;;;;;8.70;5.93;;;8.30;99.90;;;;;;5094811;28;20198;-67
2022/04/21 13:25:54;;;;;;;7.63;5.80;;;8.40;99.90;;;;;;5094852;28;20239;-68
2022/04/21 13:28:21;;;;;;;7.03;5.53;;;8.30;99.90;;;;;;5094953;28;20207;-67
2022/04/21 13:33:21;;;;;;;8.17;5.93;;;8.30;99.90;;;;;;5094677;28;20208;-67
2022/04/21 13:33:35;;;;;;;7.50;5.63;;;8.30;99.90;;;;;;5094484;28;20257;-68
2022/04/21 13:36:02;;;;;;;6.40;5.00;;;8.30;99.90;;;;;;5094964;28;20200;-68
2022/04/21 13:38:31;;;;;;;8.80;5.40;;;8.30;99.90;;;;;;5094808;28;20200;-66
2022/04/21 13:40:58;;;;;;;6.77;5.20;;;8.30;99.90;;;;;;5094747;28;20204;-67
2022/04/21 13:43:26;;;;;;;6.30;5.20;;;8.40;99.90;;;;;;5094387;28;20204;-67